createdAt,value
2022-12-25T00:02:06.423Z,5.95
2022-12-25T00:04:33.735Z,6.63
2022-12-25T00:07:01.093Z,6.30
2022-12-25T00:09:28.265Z,6.13
2022-12-25T00:11:55.370Z,5.93
2022-12-25T00:14:22.575Z,6.03
2022-12-25T00:16:49.731Z,7.75
2022-12-25T00:19:16.918Z,6.63
2022-12-25T00:21:44.164Z,5.65
2022-12-25T00:24:11.277Z,6.65
2022-12-25T00:26:38.476Z,6.35
2022-12-25T00:29:05.717Z,6.53
2022-12-25T00:31:34.584Z,5.95
2022-12-25T00:34:01.687Z,6.13
2022-12-25T00:36:28.779Z,5.40
2022-12-25T00:38:55.968Z,6.25
2022-12-25T00:41:42.795Z,5.93
2022-12-25T00:44:12.494Z,6.18
2022-12-25T00:46:40.090Z,5.57
2022-12-25T00:49:07.191Z,5.97
2022-12-25T00:51:34.305Z,6.30
2022-12-25T00:54:01.491Z,5.95
2022-12-25T00:56:28.727Z,6.38
2022-12-25T00:58:56.156Z,5.55
2022-12-25T01:01:23.464Z,5.78
2022-12-25T01:03:50.715Z,6.05
2022-12-25T01:06:17.995Z,5.63
2022-12-25T01:09:05.342Z,5.68
2022-12-25T01:11:32.924Z,5.55
2022-12-25T01:14:00.056Z,5.63
2022-12-25T01:16:27.235Z,5.70
2022-12-25T01:18:54.602Z,5.38
2022-12-25T01:21:22.147Z,5.53
2022-12-25T01:23:50.085Z,4.90
2022-12-25T01:26:17.806Z,6.05
2022-12-25T01:28:45.368Z,5.65
2022-12-25T01:31:14.051Z,5.50
2022-12-25T01:33:42.558Z,6.43
2022-12-25T01:36:12.840Z,5.88
2022-12-25T01:38:39.999Z,5.30
2022-12-25T01:41:07.485Z,5.07
2022-12-25T01:43:34.826Z,5.40
2022-12-25T01:46:03.858Z,5.78
2022-12-25T01:48:32.773Z,5.35
2022-12-25T01:51:02.395Z,5.72
2022-12-25T01:53:29.715Z,5.53
2022-12-25T01:55:59.571Z,6.05
2022-12-25T01:58:26.758Z,5.68
2022-12-25T02:00:54.398Z,5.82
2022-12-25T02:03:22.380Z,6.22
2022-12-25T02:05:50.041Z,5.53
2022-12-25T02:08:18.280Z,5.45
2022-12-25T02:10:45.742Z,5.47
2022-12-25T02:13:14.003Z,5.40
2022-12-25T02:15:48.906Z,6.32
2022-12-25T02:18:16.011Z,5.95
2022-12-25T02:20:49.175Z,6.07
2022-12-25T02:23:22.280Z,6.03
2022-12-25T02:25:52.424Z,5.80
2022-12-25T02:28:24.949Z,5.63
2022-12-25T02:30:57.546Z,6.20
2022-12-25T02:34:05.471Z,5.75
2022-12-25T02:36:50.867Z,5.78
2022-12-25T02:39:43.069Z,6.50
2022-12-25T02:45:01.449Z,5.68
2022-12-25T02:47:47.760Z,5.70
2022-12-25T02:50:34.546Z,5.80
2022-12-25T02:53:28.317Z,5.57
2022-12-25T02:56:14.532Z,6.25
2022-12-25T02:59:02.297Z,6.35
2022-12-25T03:01:49.630Z,6.28
2022-12-25T03:04:38.086Z,5.80
2022-12-25T03:07:05.284Z,5.82
2022-12-25T03:10:14.794Z,6.65
2022-12-25T03:12:45.527Z,6.57
2022-12-25T03:15:31.695Z,5.65
2022-12-25T03:18:02.334Z,5.78
2022-12-25T03:20:49.100Z,6.60
2022-12-25T03:23:38.371Z,5.85
2022-12-25T03:26:24.280Z,5.47
2022-12-25T03:31:29.120Z,6.28
2022-12-25T03:34:42.646Z,6.05
2022-12-25T03:37:24.988Z,5.90
2022-12-25T03:39:55.232Z,6.20
2022-12-25T03:42:46.168Z,6.90
2022-12-25T03:45:38.062Z,5.25
2022-12-25T03:48:24.410Z,6.03
2022-12-25T03:51:25.177Z,6.07
2022-12-25T03:54:14.003Z,6.38
2022-12-25T03:57:00.257Z,6.50
2022-12-25T03:59:46.113Z,6.35
2022-12-25T04:05:17.572Z,6.10
2022-12-25T04:08:03.250Z,5.90
2022-12-25T04:10:49.208Z,5.95
2022-12-25T04:13:34.941Z,6.43
2022-12-25T04:16:20.727Z,5.70
2022-12-25T04:21:52.224Z,5.60
2022-12-25T04:24:37.884Z,5.53
2022-12-25T04:27:23.734Z,6.30
2022-12-25T04:32:54.899Z,5.38
2022-12-25T04:35:40.882Z,4.88
2022-12-25T04:38:08.087Z,5.10
2022-12-25T04:40:35.881Z,5.07
2022-12-25T04:43:03.108Z,5.43
2022-12-25T04:45:30.199Z,5.28
2022-12-25T04:47:59.820Z,5.28
2022-12-25T04:50:27.042Z,5.03
2022-12-25T04:52:54.182Z,5.13
2022-12-25T04:55:21.366Z,5.50
2022-12-25T04:57:48.557Z,4.80
2022-12-25T05:00:16.016Z,4.68
2022-12-25T05:02:43.397Z,4.85
2022-12-25T05:05:10.628Z,4.60
2022-12-25T05:07:37.812Z,4.72
2022-12-25T05:10:05.089Z,4.80
2022-12-25T05:12:32.149Z,4.78
2022-12-25T05:14:59.419Z,4.35
2022-12-25T05:17:26.618Z,4.10
2022-12-25T05:19:53.795Z,4.32
2022-12-25T05:22:20.903Z,4.68
2022-12-25T05:24:48.064Z,4.85
2022-12-25T05:27:15.379Z,4.40
2022-12-25T05:29:42.531Z,4.47
2022-12-25T05:32:09.708Z,4.70
2022-12-25T05:34:36.844Z,4.65
2022-12-25T05:37:04.018Z,4.63
2022-12-25T05:39:31.196Z,4.70
2022-12-25T05:41:58.337Z,4.57
2022-12-25T05:44:25.453Z,4.43
2022-12-25T05:46:52.678Z,4.55
2022-12-25T05:49:19.780Z,4.57
2022-12-25T05:51:47.007Z,4.03
2022-12-25T05:54:14.378Z,3.80
2022-12-25T05:56:41.527Z,4.38
2022-12-25T05:59:08.792Z,4.15
2022-12-25T06:01:36.028Z,4.05
2022-12-25T06:04:08.426Z,3.80
2022-12-25T06:06:39.176Z,4.63
2022-12-25T06:09:06.625Z,3.63
2022-12-25T06:11:33.828Z,4.10
2022-12-25T06:14:01.254Z,4.13
2022-12-25T06:16:34.030Z,4.03
2022-12-25T06:19:04.742Z,4.75
2022-12-25T06:21:31.876Z,3.90
2022-12-25T06:24:00.506Z,4.05
2022-12-25T06:26:28.391Z,3.58
2022-12-25T06:28:55.519Z,4.03
2022-12-25T06:31:23.666Z,4.13
2022-12-25T06:33:50.845Z,4.20
2022-12-25T06:36:22.064Z,4.18
2022-12-25T06:38:49.278Z,3.88
2022-12-25T06:41:18.199Z,3.90
2022-12-25T06:43:49.140Z,4.10
2022-12-25T06:46:16.701Z,3.75
2022-12-25T06:48:50.353Z,4.13
2022-12-25T06:51:21.735Z,3.85
2022-12-25T06:53:49.648Z,4.13
2022-12-25T06:56:18.390Z,4.00
2022-12-25T06:58:46.577Z,3.55
2022-12-25T07:01:19.792Z,3.63
2022-12-25T07:03:47.875Z,3.80
2022-12-25T07:06:15.216Z,3.97
2022-12-25T07:08:42.367Z,4.38
2022-12-25T07:11:09.689Z,3.28
2022-12-25T07:13:37.166Z,3.70
2022-12-25T07:16:05.408Z,3.63
2022-12-25T07:18:32.815Z,3.85
2022-12-25T07:21:00.281Z,4.05
2022-12-25T07:23:27.478Z,3.47
2022-12-25T07:25:58.415Z,3.85
2022-12-25T07:28:26.223Z,3.72
2022-12-25T07:30:53.845Z,3.50
2022-12-25T07:33:21.225Z,3.47
2022-12-25T07:35:48.358Z,3.47
2022-12-25T07:38:15.536Z,3.42
2022-12-25T07:40:45.981Z,3.92
2022-12-25T07:43:13.584Z,3.63
2022-12-25T07:45:40.863Z,3.03
2022-12-25T07:48:13.379Z,3.38
2022-12-25T07:50:43.560Z,3.95
2022-12-25T07:53:10.844Z,3.55
2022-12-25T07:55:37.998Z,4.05
2022-12-25T07:58:07.015Z,3.45
2022-12-25T08:00:34.449Z,4.03
2022-12-25T08:03:01.912Z,3.95
2022-12-25T08:05:29.198Z,4.10
2022-12-25T08:07:57.900Z,4.20
2022-12-25T08:10:25.511Z,4.50
2022-12-25T08:12:52.688Z,3.88
2022-12-25T08:15:19.975Z,3.90
2022-12-25T08:17:47.090Z,3.70
2022-12-25T08:20:14.304Z,4.00
2022-12-25T08:22:41.404Z,4.00
2022-12-25T08:25:08.853Z,4.47
2022-12-25T08:27:36.415Z,4.25
2022-12-25T08:30:03.698Z,4.30
2022-12-25T08:32:33.605Z,4.72
2022-12-25T08:35:00.805Z,4.57
2022-12-25T08:37:30.242Z,4.20
2022-12-25T08:39:57.391Z,4.13
2022-12-25T08:42:24.812Z,4.10
2022-12-25T08:44:51.892Z,3.78
2022-12-25T08:47:19.126Z,3.75
2022-12-25T08:49:46.213Z,3.22
2022-12-25T08:52:13.568Z,3.42
2022-12-25T08:54:40.722Z,3.63
2022-12-25T08:57:07.863Z,3.30
2022-12-25T08:59:35.048Z,3.22
2022-12-25T09:02:02.381Z,3.00
2022-12-25T09:04:29.637Z,3.92
2022-12-25T09:06:56.768Z,3.40
2022-12-25T09:09:27.458Z,3.85
2022-12-25T09:11:54.998Z,3.40
2022-12-25T09:14:22.368Z,3.60
2022-12-25T09:16:52.538Z,3.22
2022-12-25T09:19:19.826Z,2.83
2022-12-25T09:21:46.979Z,3.45
2022-12-25T09:24:14.152Z,3.38
2022-12-25T09:26:41.301Z,3.45
2022-12-25T09:29:08.394Z,3.47
2022-12-25T09:31:35.562Z,3.25
2022-12-25T09:34:02.666Z,3.25
2022-12-25T09:36:29.848Z,4.03
2022-12-25T09:38:56.958Z,3.55
2022-12-25T09:41:32.239Z,3.03
2022-12-25T09:44:15.307Z,3.38
2022-12-25T09:46:44.354Z,3.25
2022-12-25T09:49:31.755Z,3.03
2022-12-25T09:52:02.037Z,3.10
2022-12-25T09:54:52.107Z,2.88
2022-12-25T09:57:19.270Z,2.90
2022-12-25T09:59:47.500Z,3.30
2022-12-25T10:02:32.095Z,3.17
2022-12-25T10:05:29.875Z,2.83
2022-12-25T10:08:17.785Z,2.83
2022-12-25T10:10:52.642Z,3.13
2022-12-25T10:13:34.757Z,3.42
2022-12-25T10:16:08.409Z,3.00
2022-12-25T10:18:35.563Z,2.92
2022-12-25T10:21:09.338Z,3.00
2022-12-25T10:23:42.099Z,3.15
2022-12-25T10:26:15.261Z,2.78
2022-12-25T10:31:19.520Z,3.13
2022-12-25T10:33:47.103Z,2.85
2022-12-25T10:36:14.836Z,3.30
2022-12-25T10:38:41.993Z,3.00
2022-12-25T10:41:09.117Z,3.05
2022-12-25T10:43:39.360Z,3.22
2022-12-25T10:46:13.605Z,3.22
2022-12-25T10:48:43.015Z,3.42
2022-12-25T10:51:10.258Z,3.80
2022-12-25T10:53:43.966Z,3.88
2022-12-25T10:56:16.745Z,5.30
2022-12-25T10:58:44.185Z,4.40
2022-12-25T11:01:11.649Z,4.55
2022-12-25T11:03:41.790Z,4.43
2022-12-25T11:06:22.097Z,4.00
2022-12-25T11:08:52.379Z,4.80
2022-12-25T11:11:20.470Z,4.75
2022-12-25T11:13:52.623Z,4.80
2022-12-25T11:16:30.865Z,5.15
2022-12-25T11:18:58.831Z,5.70
2022-12-25T11:21:27.871Z,5.20
2022-12-25T11:24:08.165Z,4.43
2022-12-25T11:26:48.547Z,5.13
2022-12-25T11:29:35.869Z,4.55
2022-12-25T11:32:04.886Z,4.85
2022-12-25T11:34:32.023Z,4.20
2022-12-25T11:37:00.372Z,4.80
2022-12-25T11:39:32.167Z,4.45
2022-12-25T11:42:08.190Z,4.70
2022-12-25T11:44:38.767Z,4.78
2022-12-25T11:47:14.867Z,4.90
2022-12-25T11:49:50.325Z,4.88
2022-12-25T11:52:19.083Z,4.50
2022-12-25T11:54:52.701Z,5.00
2022-12-25T11:57:19.898Z,4.45
2022-12-25T11:59:55.893Z,4.50
2022-12-25T12:02:39.688Z,5.13
2022-12-25T12:05:14.232Z,4.78
2022-12-25T12:07:51.239Z,4.88
2022-12-25T12:10:20.397Z,5.13
2022-12-25T12:12:55.367Z,4.85
2022-12-25T12:15:39.598Z,5.03
2022-12-25T12:18:24.000Z,5.47
2022-12-25T12:21:01.478Z,5.25
2022-12-25T12:23:30.099Z,5.68
2022-12-25T12:25:57.663Z,5.45
2022-12-25T12:28:30.280Z,4.85
2022-12-25T12:30:59.782Z,4.82
2022-12-25T12:33:29.536Z,4.82
2022-12-25T12:35:56.800Z,5.55
2022-12-25T12:38:24.411Z,5.38
2022-12-25T12:40:51.454Z,5.80
2022-12-25T12:43:27.667Z,4.95
2022-12-25T12:45:59.253Z,5.45
2022-12-25T12:48:29.046Z,5.13
2022-12-25T12:51:06.413Z,5.35
2022-12-25T12:53:34.886Z,4.93
2022-12-25T12:56:18.794Z,5.18
2022-12-25T12:58:49.991Z,5.93
2022-12-25T13:01:21.742Z,5.13
2022-12-25T13:03:58.251Z,5.55
2022-12-25T13:06:33.812Z,5.38
2022-12-25T13:09:00.930Z,5.43
2022-12-25T13:11:32.969Z,5.57
2022-12-25T13:14:02.169Z,5.68
2022-12-25T13:16:29.547Z,5.80
2022-12-25T13:18:57.353Z,5.80
2022-12-25T13:21:25.984Z,5.47
2022-12-25T13:24:01.319Z,5.93
2022-12-25T13:26:28.964Z,6.32
2022-12-25T13:28:56.282Z,5.75
2022-12-25T13:31:25.240Z,5.60
2022-12-25T13:33:58.416Z,5.80
2022-12-25T13:38:55.754Z,6.20
2022-12-25T13:41:45.724Z,6.50
2022-12-25T13:44:20.063Z,6.43
2022-12-25T13:46:47.563Z,6.10
2022-12-25T13:49:15.788Z,6.38
2022-12-25T13:51:43.119Z,6.75
2022-12-25T13:54:12.961Z,5.85
2022-12-25T13:57:06.611Z,6.45
2022-12-25T13:59:33.998Z,6.38
2022-12-25T14:02:01.413Z,6.82
2022-12-25T14:04:29.254Z,6.25
2022-12-25T14:06:56.478Z,5.97
2022-12-25T14:09:23.811Z,6.45
2022-12-25T14:11:52.175Z,6.47
2022-12-25T14:14:23.669Z,6.18
2022-12-25T14:16:53.518Z,6.70
2022-12-25T14:19:26.134Z,6.38
2022-12-25T14:21:58.811Z,6.38
2022-12-25T14:24:27.469Z,6.25
2022-12-25T14:26:58.942Z,6.45
2022-12-25T14:29:28.583Z,6.45
2022-12-25T14:31:58.130Z,6.45
2022-12-25T14:34:26.775Z,7.05
2022-12-25T14:36:54.436Z,6.72
2022-12-25T14:39:35.450Z,7.28
2022-12-25T14:42:11.228Z,7.00
2022-12-25T14:44:39.651Z,6.43
2022-12-25T14:47:27.000Z,6.70
2022-12-25T14:49:54.582Z,6.80
2022-12-25T14:52:29.694Z,6.55
2022-12-25T14:55:07.116Z,6.03
2022-12-25T14:57:41.057Z,6.75
2022-12-25T15:00:20.741Z,6.13
2022-12-25T15:02:48.941Z,6.68
2022-12-25T15:05:25.663Z,6.65
2022-12-25T15:08:11.175Z,6.93
2022-12-25T15:13:27.191Z,6.18
2022-12-25T15:16:06.200Z,6.25
2022-12-25T15:18:38.615Z,6.57
2022-12-25T15:21:06.008Z,6.88
2022-12-25T15:23:33.305Z,5.25
2022-12-25T15:26:00.495Z,6.13
2022-12-25T15:28:27.676Z,5.97
2022-12-25T15:30:54.888Z,6.32
2022-12-25T15:33:22.053Z,6.47
2022-12-25T15:35:49.280Z,6.45
2022-12-25T15:38:16.472Z,6.35
2022-12-25T15:40:43.651Z,7.28
2022-12-25T15:43:38.761Z,5.85
2022-12-25T15:46:01.232Z,5.65
2022-12-25T15:48:28.412Z,6.07
2022-12-25T15:50:55.655Z,6.85
2022-12-25T15:53:22.749Z,7.30
2022-12-25T15:55:49.880Z,6.82
2022-12-25T15:58:17.052Z,7.55
2022-12-25T16:00:44.149Z,7.20
2022-12-25T16:03:11.385Z,8.05
2022-12-25T16:05:38.739Z,7.80
2022-12-25T16:08:05.993Z,7.32
2022-12-25T16:10:38.424Z,8.05
2022-12-25T16:13:06.194Z,8.10
2022-12-25T16:15:33.492Z,8.18
2022-12-25T16:18:00.674Z,7.57
2022-12-25T16:20:27.831Z,7.63
2022-12-25T16:22:54.924Z,6.80
2022-12-25T16:25:22.155Z,8.13
2022-12-25T16:27:49.337Z,7.47
2022-12-25T16:30:17.499Z,7.43
2022-12-25T16:32:45.309Z,7.72
2022-12-25T16:35:12.550Z,7.50
2022-12-25T16:37:39.869Z,7.90
2022-12-25T16:40:10.581Z,7.63
2022-12-25T16:42:38.238Z,7.30
2022-12-25T16:45:05.954Z,7.93
2022-12-25T16:47:33.619Z,7.97
2022-12-25T16:50:00.758Z,8.63
2022-12-25T16:52:28.132Z,7.65
2022-12-25T16:54:55.261Z,8.48
2022-12-25T16:57:22.381Z,11.82
2022-12-25T16:59:49.700Z,8.75
2022-12-25T17:02:18.160Z,7.70
2022-12-25T17:04:45.915Z,7.70
2022-12-25T17:07:13.361Z,7.78
2022-12-25T17:09:44.322Z,8.18
2022-12-25T17:12:11.780Z,8.70
2022-12-25T17:14:38.928Z,8.90
2022-12-25T17:17:06.098Z,9.65
2022-12-25T17:19:33.352Z,9.40
2022-12-25T17:22:00.753Z,10.02
2022-12-25T17:24:28.709Z,10.10
2022-12-25T17:26:55.916Z,8.95
2022-12-25T17:29:24.593Z,8.40
2022-12-25T17:31:52.214Z,8.35
2022-12-25T17:34:19.598Z,8.57
2022-12-25T17:36:46.780Z,8.18
2022-12-25T17:39:13.971Z,9.57
2022-12-25T17:41:41.138Z,9.95
2022-12-25T17:44:08.254Z,8.52
2022-12-25T17:46:35.465Z,13.13
2022-12-25T17:49:03.125Z,10.98
2022-12-25T17:51:30.816Z,9.10
2022-12-25T17:53:59.265Z,9.05
2022-12-25T17:56:26.451Z,9.05
2022-12-25T17:58:54.669Z,9.57
2022-12-25T18:01:22.432Z,10.32
2022-12-25T18:03:50.062Z,8.88
2022-12-25T18:06:18.397Z,9.38
2022-12-25T18:08:46.529Z,8.38
2022-12-25T18:11:15.554Z,9.50
2022-12-25T18:13:44.699Z,9.82
2022-12-25T18:16:13.133Z,9.63
2022-12-25T18:18:40.608Z,9.75
2022-12-25T18:21:08.167Z,9.43
2022-12-25T18:23:35.779Z,9.15
2022-12-25T18:26:03.871Z,8.02
2022-12-25T18:28:31.356Z,8.52
2022-12-25T18:30:58.632Z,9.23
2022-12-25T18:33:26.085Z,8.95
2022-12-25T18:35:57.875Z,9.10
2022-12-25T18:38:25.238Z,10.88
2022-12-25T18:40:52.515Z,11.38
2022-12-25T18:43:20.652Z,10.82
2022-12-25T18:46:08.070Z,12.00
2022-12-25T18:48:36.408Z,10.80
2022-12-25T18:51:05.671Z,14.27
2022-12-25T18:53:33.247Z,60.50
2022-12-25T18:56:07.853Z,64.57
2022-12-25T18:58:35.935Z,53.47
2022-12-25T19:01:09.855Z,21.70
2022-12-25T19:03:36.971Z,13.80
2022-12-25T19:06:04.074Z,13.05
2022-12-25T19:08:31.244Z,10.50
2022-12-25T19:10:59.883Z,9.00
2022-12-25T19:13:27.519Z,8.15
2022-12-25T19:15:58.026Z,7.30
2022-12-25T19:18:25.113Z,8.60
2022-12-25T19:20:52.204Z,8.05
2022-12-25T19:23:19.399Z,8.27
2022-12-25T19:25:46.676Z,8.55
2022-12-25T19:28:13.740Z,8.98
2022-12-25T19:30:40.819Z,9.98
2022-12-25T19:33:11.130Z,9.23
2022-12-25T19:35:42.815Z,9.35
2022-12-25T19:38:10.018Z,10.90
2022-12-25T19:40:38.387Z,10.27
2022-12-25T19:43:05.827Z,10.07
2022-12-25T19:45:33.180Z,9.40
2022-12-25T19:48:00.395Z,10.07
2022-12-25T19:50:28.476Z,10.00
2022-12-25T19:52:55.951Z,8.68
2022-12-25T19:55:23.172Z,10.07
2022-12-25T19:57:50.319Z,10.23
2022-12-25T20:00:17.600Z,10.65
2022-12-25T20:02:44.761Z,10.00
2022-12-25T20:05:11.989Z,10.52
2022-12-25T20:07:39.129Z,11.60
2022-12-25T20:10:07.114Z,9.18
2022-12-25T20:12:34.230Z,9.88
2022-12-25T20:15:01.316Z,10.23
2022-12-25T20:17:28.545Z,9.63
2022-12-25T20:19:55.630Z,10.57
2022-12-25T20:22:22.767Z,9.13
2022-12-25T20:24:50.072Z,7.78
2022-12-25T20:27:17.261Z,7.47
2022-12-25T20:29:44.354Z,7.20
2022-12-25T20:32:11.561Z,7.57
2022-12-25T20:34:38.757Z,7.90
2022-12-25T20:37:05.867Z,8.55
2022-12-25T20:39:33.284Z,8.10
2022-12-25T20:42:00.431Z,8.52
2022-12-25T20:44:27.568Z,10.00
2022-12-25T20:46:59.202Z,9.85
2022-12-25T20:49:27.765Z,9.30
2022-12-25T20:51:57.387Z,9.88
2022-12-25T20:54:28.527Z,12.18
2022-12-25T20:56:55.623Z,11.93
2022-12-25T20:59:22.845Z,12.27
2022-12-25T21:01:50.106Z,10.30
2022-12-25T21:04:17.271Z,10.57
2022-12-25T21:06:44.322Z,8.35
2022-12-25T21:09:11.434Z,8.95
2022-12-25T21:11:38.499Z,8.63
2022-12-25T21:14:05.721Z,7.63
2022-12-25T21:16:33.209Z,7.70
2022-12-25T21:19:00.417Z,8.02
2022-12-25T21:21:28.213Z,9.07
2022-12-25T21:23:56.806Z,8.88
2022-12-25T21:26:25.891Z,7.88
2022-12-25T21:28:54.194Z,8.35
2022-12-25T21:31:21.526Z,8.85
2022-12-25T21:33:53.894Z,9.57
2022-12-25T21:36:21.007Z,9.85
2022-12-25T21:38:48.114Z,9.63
2022-12-25T21:41:16.043Z,9.48
2022-12-25T21:43:43.263Z,8.77
2022-12-25T21:46:14.248Z,8.40
2022-12-25T21:48:41.844Z,8.70
2022-12-25T21:51:30.182Z,8.93
2022-12-25T21:53:58.099Z,8.43
2022-12-25T21:56:25.523Z,9.00
2022-12-25T21:58:52.643Z,9.35
2022-12-25T22:01:19.856Z,9.15
2022-12-25T22:03:47.096Z,9.35
2022-12-25T22:06:33.208Z,10.35
2022-12-25T22:09:01.411Z,9.30
2022-12-25T22:11:47.154Z,7.97
2022-12-25T22:14:51.144Z,9.40
2022-12-25T22:17:43.988Z,8.18
2022-12-25T22:20:13.497Z,9.02
2022-12-25T22:22:40.677Z,8.38
2022-12-25T22:25:08.966Z,8.02
2022-12-25T22:27:37.790Z,7.55
2022-12-25T22:30:05.958Z,7.60
2022-12-25T22:32:33.108Z,7.97
2022-12-25T22:35:00.517Z,7.80
2022-12-25T22:37:27.678Z,7.07
2022-12-25T22:39:54.755Z,7.50
2022-12-25T22:42:22.183Z,6.93
2022-12-25T22:44:49.437Z,6.72
2022-12-25T22:47:16.566Z,6.68
2022-12-25T22:49:43.706Z,6.93
2022-12-25T22:52:10.902Z,6.35
2022-12-25T22:54:38.235Z,6.25
2022-12-25T22:57:05.876Z,6.60
2022-12-25T22:59:33.476Z,5.82
2022-12-25T23:02:00.965Z,5.47
2022-12-25T23:04:28.604Z,6.05
2022-12-25T23:06:56.043Z,5.68
2022-12-25T23:09:27.468Z,6.13
2022-12-25T23:11:58.972Z,5.57
2022-12-25T23:14:39.124Z,6.15
2022-12-25T23:17:30.568Z,5.95
2022-12-25T23:20:17.619Z,5.85
2022-12-25T23:23:03.806Z,5.40
2022-12-25T23:25:49.765Z,5.93
2022-12-25T23:28:39.841Z,5.85
2022-12-25T23:31:07.207Z,5.70
2022-12-25T23:33:34.444Z,5.65
2022-12-25T23:36:01.604Z,5.90
2022-12-25T23:38:28.758Z,5.57
2022-12-25T23:40:55.850Z,5.28
2022-12-25T23:43:22.943Z,6.45
2022-12-25T23:45:50.042Z,6.32
2022-12-25T23:48:17.139Z,5.80
2022-12-25T23:50:44.211Z,5.93
2022-12-25T23:53:11.387Z,5.80
2022-12-25T23:55:38.732Z,6.78
2022-12-25T23:58:05.906Z,6.05
